Terminal Aerodrome Forecast
Issued by NWS Missoula, MT

Home | Current Version | Previous Version | Text Only | Print | Product List | Glossary On
Versions: 1 2 3 4 5 6 7 8 9 10 11 12 13 14 15 16 17 18 19 20 21 22
261
FTUS45 KMSO 191133
TAFGPI
TAF
KGPI 191133Z 1912/2012 VRB05KT P6SM VCSH BKN060 OVC100
      TEMPO 1912/1915 4SM BR SCT015 OVC050
     FM191500 20005KT 4SM -SHSN BR OVC030
     FM191800 20008KT P6SM VCSH BKN050 OVC080
     FM200300 VRB05KT P6SM BKN015 OVC030=

USA.gov is the U.S. government's official web portal to all federal, state and local government web resources and services.